<?xml version="1.0" encoding="UTF-8" standalone="no" ?>
<gpx xmlns="http://www.topografix.com/GPX/1/1" xmlns:xsi="http://www.w3.org/2001/XMLSchema-instance" xsi:schemaLocation="http://www.topografix.com/GPX/1/1 http://www.topografix.com/GPX/1/1/gpx.xsd" version="1.1" creator="VisuGPX - https://www.visugpx.com">
  <metadata>
    <name>Nocturne Mercy le Bas 20 km</name>
    <desc><![CDATA[Nocturne 20km MLB
parties communes techniques, parties 20km seul plus simples.
Possibilité de raccourci et d'extension à partir du 2e ravitaillement.]]></desc>
  </metadata>
  <trk>
    <name><![CDATA[Nocturne Mercy le Bas 20 km_2]]></name>
    <extensions>
      <line xmlns="http://www.topografix.com/GPX/gpx_style/0/2">
        <color>00FF00</color>
        <width>4</width>
      </line>
    </extensions>
    <trkseg>
      <trkpt lat="49.39403" lon="5.81327">
        <ele>279.60000610352</ele>
        <time>2022-09-13T11:31:57.000Z</time>
      </trkpt>
      <trkpt lat="49.39404" lon="5.81322">
        <ele>278.79998779297</ele>
        <time>2022-09-13T11:31:58.000Z</time>
      </trkpt>
      <trkpt lat="49.39404" lon="5.81318">
        <ele>278.39999389648</ele>
        <time>2022-09-13T11:31:59.000Z</time>
      </trkpt>
      <trkpt lat="49.39403" lon="5.81314">
        <ele>278.20001220703</ele>
        <time>2022-09-13T11:32:00.000Z</time>
      </trkpt>
      <trkpt lat="49.39403" lon="5.8131">
        <ele>278</ele>
        <time>2022-09-13T11:32:01.000Z</time>
      </trkpt>
      <trkpt lat="49.39404" lon="5.81307">
        <ele>278</ele>
        <time>2022-09-13T11:32:02.000Z</time>
      </trkpt>
      <trkpt lat="49.39404" lon="5.81304">
        <ele>277.79998779297</ele>
        <time>2022-09-13T11:32:03.000Z</time>
      </trkpt>
      <trkpt lat="49.39405" lon="5.81302">
        <ele>277.79998779297</ele>
        <time>2022-09-13T11:32:04.000Z</time>
      </trkpt>
      <trkpt lat="49.39405" lon="5.813">
        <ele>277.79998779297</ele>
        <time>2022-09-13T11:32:05.000Z</time>
      </trkpt>
      <trkpt lat="49.39405" lon="5.81298">
        <ele>277.60000610352</ele>
        <time>2022-09-13T11:32:06.000Z</time>
      </trkpt>
      <trkpt lat="49.39405" lon="5.81296">
        <ele>277.60000610352</ele>
        <time>2022-09-13T11:32:07.000Z</time>
      </trkpt>
      <trkpt lat="49.39405" lon="5.81295">
        <ele>277.60000610352</ele>
        <time>2022-09-13T11:32:08.000Z</time>
      </trkpt>
      <trkpt lat="49.39404" lon="5.81293">
        <ele>277.39999389648</ele>
        <time>2022-09-13T11:32:09.000Z</time>
      </trkpt>
      <trkpt lat="49.39403" lon="5.81291">
        <ele>277.39999389648</ele>
        <time>2022-09-13T11:32:10.000Z</time>
      </trkpt>
      <trkpt lat="49.39403" lon="5.81289">
        <ele>277.39999389648</ele>
        <time>2022-09-13T11:32:11.000Z</time>
      </trkpt>
      <trkpt lat="49.39402" lon="5.81286">
        <ele>277.39999389648</ele>
        <time>2022-09-13T11:32:12.000Z</time>
      </trkpt>
      <trkpt lat="49.39403" lon="5.81283">
        <ele>277.39999389648</ele>
        <time>2022-09-13T11:32:13.000Z</time>
      </trkpt>
      <trkpt lat="49.39403" lon="5.81278">
        <ele>277.39999389648</ele>
        <time>2022-09-13T11:32:14.000Z</time>
      </trkpt>
      <trkpt lat="49.39403" lon="5.81274">
        <ele>277.39999389648</ele>
        <time>2022-09-13T11:32:15.000Z</time>
      </trkpt>
      <trkpt lat="49.39403" lon="5.81264">
        <ele>277.60000610352</ele>
        <time>2022-09-13T11:32:17.000Z</time>
      </trkpt>
      <trkpt lat="49.39403" lon="5.81254">
        <ele>277.60000610352</ele>
        <time>2022-09-13T11:32:19.000Z</time>
      </trkpt>
      <trkpt lat="49.39403" lon="5.81239">
        <ele>277.60000610352</ele>
        <time>2022-09-13T11:32:22.000Z</time>
      </trkpt>
      <trkpt lat="49.39403" lon="5.81218">
        <ele>277.60000610352</ele>
        <time>2022-09-13T11:32:26.000Z</time>
      </trkpt>
      <trkpt lat="49.39401" lon="5.81203">
        <ele>277.60000610352</ele>
        <time>2022-09-13T11:32:29.000Z</time>
      </trkpt>
      <trkpt lat="49.394" lon="5.81199">
        <ele>277.60000610352</ele>
        <time>2022-09-13T11:32:30.000Z</time>
      </trkpt>
      <trkpt lat="49.394" lon="5.81194">
        <ele>277.60000610352</ele>
        <time>2022-09-13T11:32:31.000Z</time>
      </trkpt>
      <trkpt lat="49.394" lon="5.81191">
        <ele>277.60000610352</ele>
        <time>2022-09-13T11:32:32.000Z</time>
      </trkpt>
      <trkpt lat="49.394" lon="5.81187">
        <ele>277.60000610352</ele>
        <time>2022-09-13T11:32:33.000Z</time>
      </trkpt>
      <trkpt lat="49.394" lon="5.81185">
        <ele>277.79998779297</ele>
        <time>2022-09-13T11:32:34.000Z</time>
      </trkpt>
      <trkpt lat="49.394" lon="5.81179">
        <ele>278.60000610352</ele>
        <time>2022-09-13T11:32:36.000Z</time>
      </trkpt>
      <trkpt lat="49.394" lon="5.81176">
        <ele>278.79998779297</ele>
        <time>2022-09-13T11:32:37.000Z</time>
      </trkpt>
      <trkpt lat="49.394" lon="5.81174">
        <ele>278.79998779297</ele>
        <time>2022-09-13T11:32:38.000Z</time>
      </trkpt>
      <trkpt lat="49.394" lon="5.81171">
        <ele>279.39999389648</ele>
        <time>2022-09-13T11:32:39.000Z</time>
      </trkpt>
      <trkpt lat="49.39401" lon="5.81169">
        <ele>279.60000610352</ele>
        <time>2022-09-13T11:32:40.000Z</time>
      </trkpt>
      <trkpt lat="49.39401" lon="5.81166">
        <ele>279.79998779297</ele>
        <time>2022-09-13T11:32:41.000Z</time>
      </trkpt>
      <trkpt lat="49.394" lon="5.81164">
        <ele>280</ele>
        <time>2022-09-13T11:32:42.000Z</time>
      </trkpt>
      <trkpt lat="49.394" lon="5.81162">
        <ele>280.39999389648</ele>
        <time>2022-09-13T11:32:43.000Z</time>
      </trkpt>
      <trkpt lat="49.394" lon="5.8116">
        <ele>280.60000610352</ele>
        <time>2022-09-13T11:32:44.000Z</time>
      </trkpt>
      <trkpt lat="49.39401" lon="5.81158">
        <ele>281</ele>
        <time>2022-09-13T11:32:45.000Z</time>
      </trkpt>
      <trkpt lat="49.39402" lon="5.81155">
        <ele>281.20001220703</ele>
        <time>2022-09-13T11:32:46.000Z</time>
      </trkpt>
      <trkpt lat="49.39402" lon="5.81153">
        <ele>281.60000610352</ele>
        <time>2022-09-13T11:32:47.000Z</time>
      </trkpt>
      <trkpt lat="49.39403" lon="5.81151">
        <ele>282.20001220703</ele>
        <time>2022-09-13T11:32:48.000Z</time>
      </trkpt>
      <trkpt lat="49.39403" lon="5.81148">
        <ele>282.39999389648</ele>
        <time>2022-09-13T11:32:49.000Z</time>
      </trkpt>
      <trkpt lat="49.39403" lon="5.81146">
        <ele>282.60000610352</ele>
        <time>2022-09-13T11:32:50.000Z</time>
      </trkpt>
      <trkpt lat="49.39404" lon="5.81143">
        <ele>283</ele>
        <time>2022-09-13T11:32:51.000Z</time>
      </trkpt>
      <trkpt lat="49.39404" lon="5.8114">
        <ele>283.20001220703</ele>
        <time>2022-09-13T11:32:52.000Z</time>
      </trkpt>
      <trkpt lat="49.39405" lon="5.81138">
        <ele>283.39999389648</ele>
        <time>2022-09-13T11:32:53.000Z</time>
      </trkpt>
      <trkpt lat="49.39405" lon="5.81135">
        <ele>283.60000610352</ele>
        <time>2022-09-13T11:32:54.000Z</time>
      </trkpt>
      <trkpt lat="49.39406" lon="5.81133">
        <ele>283.60000610352</ele>
        <time>2022-09-13T11:32:55.000Z</time>
      </trkpt>
      <trkpt lat="49.39407" lon="5.81132">
        <ele>283.79998779297</ele>
        <time>2022-09-13T11:32:56.000Z</time>
      </trkpt>
      <trkpt lat="49.39408" lon="5.81129">
        <ele>284.20001220703</ele>
        <time>2022-09-13T11:32:57.000Z</time>
      </trkpt>
      <trkpt lat="49.39409" lon="5.81127">
        <ele>284.60000610352</ele>
        <time>2022-09-13T11:32:58.000Z</time>
      </trkpt>
      <trkpt lat="49.3941" lon="5.81124">
        <ele>285.20001220703</ele>
        <time>2022-09-13T11:32:59.000Z</time>
      </trkpt>
      <trkpt lat="49.39411" lon="5.81122">
        <ele>285.79998779297</ele>
        <time>2022-09-13T11:33:00.000Z</time>
      </trkpt>
      <trkpt lat="49.39412" lon="5.81119">
        <ele>286</ele>
        <time>2022-09-13T11:33:01.000Z</time>
      </trkpt>
      <trkpt lat="49.39413" lon="5.81116">
        <ele>286.39999389648</ele>
        <time>2022-09-13T11:33:02.000Z</time>
      </trkpt>
      <trkpt lat="49.39414" lon="5.81113">
        <ele>286.60000610352</ele>
        <time>2022-09-13T11:33:03.000Z</time>
      </trkpt>
      <trkpt lat="49.39413" lon="5.8111">
        <ele>286.79998779297</ele>
        <time>2022-09-13T11:33:04.000Z</time>
      </trkpt>
      <trkpt lat="49.39413" lon="5.81109">
        <ele>287</ele>
        <time>2022-09-13T11:33:05.000Z</time>
      </trkpt>
      <trkpt lat="49.39415" lon="5.81107">
        <ele>287.20001220703</ele>
        <time>2022-09-13T11:33:06.000Z</time>
      </trkpt>
      <trkpt lat="49.39417" lon="5.81104">
        <ele>287.60000610352</ele>
        <time>2022-09-13T11:33:07.000Z</time>
      </trkpt>
      <trkpt lat="49.39418" lon="5.81103">
        <ele>287.79998779297</ele>
        <time>2022-09-13T11:33:08.000Z</time>
      </trkpt>
      <trkpt lat="49.39419" lon="5.81101">
        <ele>288</ele>
        <time>2022-09-13T11:33:09.000Z</time>
      </trkpt>
      <trkpt lat="49.39421" lon="5.811">
        <ele>288.20001220703</ele>
        <time>2022-09-13T11:33:10.000Z</time>
      </trkpt>
      <trkpt lat="49.39422" lon="5.81098">
        <ele>288.60000610352</ele>
        <time>2022-09-13T11:33:11.000Z</time>
      </trkpt>
      <trkpt lat="49.39423" lon="5.81097">
        <ele>288.60000610352</ele>
        <time>2022-09-13T11:33:12.000Z</time>
      </trkpt>
      <trkpt lat="49.39424" lon="5.81095">
        <ele>289</ele>
        <time>2022-09-13T11:33:13.000Z</time>
      </trkpt>
      <trkpt lat="49.39425" lon="5.81093">
        <ele>289.39999389648</ele>
        <time>2022-09-13T11:33:14.000Z</time>
      </trkpt>
      <trkpt lat="49.39426" lon="5.81091">
        <ele>289.79998779297</ele>
        <time>2022-09-13T11:33:15.000Z</time>
      </trkpt>
      <trkpt lat="49.39427" lon="5.81089">
        <ele>290</ele>
        <time>2022-09-13T11:33:16.000Z</time>
      </trkpt>
      <trkpt lat="49.39428" lon="5.81087">
        <ele>290.20001220703</ele>
        <time>2022-09-13T11:33:17.000Z</time>
      </trkpt>
      <trkpt lat="49.39429" lon="5.81084">
        <ele>290.79998779297</ele>
        <time>2022-09-13T11:33:18.000Z</time>
      </trkpt>
      <trkpt lat="49.39431" lon="5.81081">
        <ele>291</ele>
        <time>2022-09-13T11:33:19.000Z</time>
      </trkpt>
      <trkpt lat="49.39432" lon="5.81079">
        <ele>291.20001220703</ele>
        <time>2022-09-13T11:33:20.000Z</time>
      </trkpt>
      <trkpt lat="49.39433" lon="5.81077">
        <ele>292</ele>
        <time>2022-09-13T11:33:21.000Z</time>
      </trkpt>
      <trkpt lat="49.39434" lon="5.81073">
        <ele>292.20001220703</ele>
        <time>2022-09-13T11:33:22.000Z</time>
      </trkpt>
      <trkpt lat="49.39435" lon="5.81071">
        <ele>292.39999389648</ele>
        <time>2022-09-13T11:33:23.000Z</time>
      </trkpt>
      <trkpt lat="49.39436" lon="5.8107">
        <ele>292.60000610352</ele>
        <time>2022-09-13T11:33:24.000Z</time>
      </trkpt>
      <trkpt lat="49.39437" lon="5.81068">
        <ele>292.79998779297</ele>
        <time>2022-09-13T11:33:25.000Z</time>
      </trkpt>
      <trkpt lat="49.39438" lon="5.81065">
        <ele>292.79998779297</ele>
        <time>2022-09-13T11:33:26.000Z</time>
      </trkpt>
      <trkpt lat="49.39438" lon="5.81061">
        <ele>293</ele>
        <time>2022-09-13T11:33:27.000Z</time>
      </trkpt>
      <trkpt lat="49.39439" lon="5.81058">
        <ele>293.20001220703</ele>
        <time>2022-09-13T11:33:28.000Z</time>
      </trkpt>
      <trkpt lat="49.39439" lon="5.81056">
        <ele>294</ele>
        <time>2022-09-13T11:33:29.000Z</time>
      </trkpt>
      <trkpt lat="49.39441" lon="5.81054">
        <ele>294.39999389648</ele>
        <time>2022-09-13T11:33:30.000Z</time>
      </trkpt>
      <trkpt lat="49.39442" lon="5.81052">
        <ele>294.79998779297</ele>
        <time>2022-09-13T11:33:31.000Z</time>
      </trkpt>
      <trkpt lat="49.39442" lon="5.81049">
        <ele>295.39999389648</ele>
        <time>2022-09-13T11:33:32.000Z</time>
      </trkpt>
      <trkpt lat="49.39443" lon="5.81047">
        <ele>295.60000610352</ele>
        <time>2022-09-13T11:33:33.000Z</time>
      </trkpt>
      <trkpt lat="49.39443" lon="5.81046">
        <ele>296.20001220703</ele>
        <time>2022-09-13T11:33:34.000Z</time>
      </trkpt>
      <trkpt lat="49.39444" lon="5.81044">
        <ele>296.39999389648</ele>
        <time>2022-09-13T11:33:35.000Z</time>
      </trkpt>
      <trkpt lat="49.39446" lon="5.81042">
        <ele>296.79998779297</ele>
        <time>2022-09-13T11:33:36.000Z</time>
      </trkpt>
      <trkpt lat="49.39448" lon="5.8104">
        <ele>297.20001220703</ele>
        <time>2022-09-13T11:33:38.000Z</time>
      </trkpt>
      <trkpt lat="49.39449" lon="5.81038">
        <ele>297.39999389648</ele>
        <time>2022-09-13T11:33:39.000Z</time>
      </trkpt>
      <trkpt lat="49.39451" lon="5.81036">
        <ele>297.60000610352</ele>
        <time>2022-09-13T11:33:40.000Z</time>
      </trkpt>
      <trkpt lat="49.39453" lon="5.81034">
        <ele>298.39999389648</ele>
        <time>2022-09-13T11:33:41.000Z</time>
      </trkpt>
      <trkpt lat="49.39455" lon="5.81032">
        <ele>298.60000610352</ele>
        <time>2022-09-13T11:33:42.000Z</time>
      </trkpt>
      <trkpt lat="49.39457" lon="5.81029">
        <ele>299.20001220703</ele>
        <time>2022-09-13T11:33:43.000Z</time>
      </trkpt>
      <trkpt lat="49.39458" lon="5.81027">
        <ele>299.39999389648</ele>
        <time>2022-09-13T11:33:44.000Z</time>
      </trkpt>
      <trkpt lat="49.3946" lon="5.81025">
        <ele>299.79998779297</ele>
        <time>2022-09-13T11:33:45.000Z</time>
      </trkpt>
      <trkpt lat="49.39461" lon="5.81023">
        <ele>300.20001220703</ele>
        <time>2022-09-13T11:33:46.000Z</time>
      </trkpt>
      <trkpt lat="49.39462" lon="5.81021">
        <ele>300.39999389648</ele>
        <time>2022-09-13T11:33:47.000Z</time>
      </trkpt>
      <trkpt lat="49.39464" lon="5.8102">
        <ele>300.60000610352</ele>
        <time>2022-09-13T11:33:48.000Z</time>
      </trkpt>
      <trkpt lat="49.39467" lon="5.81019">
        <ele>300.79998779297</ele>
        <time>2022-09-13T11:33:49.000Z</time>
      </trkpt>
      <trkpt lat="49.39468" lon="5.81017">
        <ele>301.20001220703</ele>
        <time>2022-09-13T11:33:50.000Z</time>
      </trkpt>
      <trkpt lat="49.3947" lon="5.81016">
        <ele>301.60000610352</ele>
        <time>2022-09-13T11:33:51.000Z</time>
      </trkpt>
      <trkpt lat="49.39471" lon="5.81014">
        <ele>301.79998779297</ele>
        <time>2022-09-13T11:33:52.000Z</time>
      </trkpt>
      <trkpt lat="49.39471" lon="5.81013">
        <ele>302.20001220703</ele>
        <time>2022-09-13T11:33:53.000Z</time>
      </trkpt>
      <trkpt lat="49.39472" lon="5.81012">
        <ele>302.20001220703</ele>
        <time>2022-09-13T11:33:54.000Z</time>
      </trkpt>
      <trkpt lat="49.39474" lon="5.81011">
        <ele>302.60000610352</ele>
        <time>2022-09-13T11:33:55.000Z</time>
      </trkpt>
      <trkpt lat="49.39476" lon="5.81009">
        <ele>302.60000610352</ele>
        <time>2022-09-13T11:33:56.000Z</time>
      </trkpt>
      <trkpt lat="49.39477" lon="5.81008">
        <ele>302.79998779297</ele>
        <time>2022-09-13T11:33:57.000Z</time>
      </trkpt>
      <trkpt lat="49.39478" lon="5.81007">
        <ele>303</ele>
        <time>2022-09-13T11:33:58.000Z</time>
      </trkpt>
      <trkpt lat="49.39478" lon="5.81006">
        <ele>303.20001220703</ele>
        <time>2022-09-13T11:33:59.000Z</time>
      </trkpt>
      <trkpt lat="49.39479" lon="5.81005">
        <ele>303.39999389648</ele>
        <time>2022-09-13T11:34:00.000Z</time>
      </trkpt>
      <trkpt lat="49.39482" lon="5.81004">
        <ele>303.39999389648</ele>
        <time>2022-09-13T11:34:01.000Z</time>
      </trkpt>
      <trkpt lat="49.39483" lon="5.81003">
        <ele>303.60000610352</ele>
        <time>2022-09-13T11:34:02.000Z</time>
      </trkpt>
      <trkpt lat="49.39488" lon="5.81002">
        <ele>303.79998779297</ele>
        <time>2022-09-13T11:34:03.000Z</time>
      </trkpt>
      <trkpt lat="49.3949" lon="5.81001">
        <ele>304.20001220703</ele>
        <time>2022-09-13T11:34:04.000Z</time>
      </trkpt>
      <trkpt lat="49.39491" lon="5.81001">
        <ele>304.20001220703</ele>
        <time>2022-09-13T11:34:05.000Z</time>
      </trkpt>
      <trkpt lat="49.39491" lon="5.81002">
        <ele>304.39999389648</ele>
        <time>2022-09-13T11:34:06.000Z</time>
      </trkpt>
      <trkpt lat="49.39492" lon="5.81002">
        <ele>304.60000610352</ele>
        <time>2022-09-13T11:34:07.000Z</time>
      </trkpt>
      <trkpt lat="49.39495" lon="5.80998">
        <ele>304.79998779297</ele>
        <time>2022-09-13T11:34:10.000Z</time>
      </trkpt>
      <trkpt lat="49.39497" lon="5.80997">
        <ele>305.20001220703</ele>
        <time>2022-09-13T11:34:11.000Z</time>
      </trkpt>
      <trkpt lat="49.39498" lon="5.80997">
        <ele>305.39999389648</ele>
        <time>2022-09-13T11:34:12.000Z</time>
      </trkpt>
      <trkpt lat="49.39499" lon="5.80997">
        <ele>306</ele>
        <time>2022-09-13T11:34:14.000Z</time>
      </trkpt>
      <trkpt lat="49.395" lon="5.80997">
        <ele>306</ele>
        <time>2022-09-13T11:34:15.000Z</time>
      </trkpt>
      <trkpt lat="49.39501" lon="5.80997">
        <ele>306.20001220703</ele>
        <time>2022-09-13T11:34:16.000Z</time>
      </trkpt>
      <trkpt lat="49.39503" lon="5.80996">
        <ele>306.39999389648</ele>
        <time>2022-09-13T11:34:17.000Z</time>
      </trkpt>
      <trkpt lat="49.39505" lon="5.80995">
        <ele>306.60000610352</ele>
        <time>2022-09-13T11:34:18.000Z</time>
      </trkpt>
      <trkpt lat="49.39506" lon="5.80995">
        <ele>306.79998779297</ele>
        <time>2022-09-13T11:34:19.000Z</time>
      </trkpt>
      <trkpt lat="49.39508" lon="5.80995">
        <ele>307</ele>
        <time>2022-09-13T11:34:20.000Z</time>
      </trkpt>
      <trkpt lat="49.39509" lon="5.80995">
        <ele>307.39999389648</ele>
        <time>2022-09-13T11:34:21.000Z</time>
      </trkpt>
      <trkpt lat="49.3951" lon="5.80995">
        <ele>307.39999389648</ele>
        <time>2022-09-13T11:34:22.000Z</time>
      </trkpt>
      <trkpt lat="49.39512" lon="5.80995">
        <ele>307.60000610352</ele>
        <time>2022-09-13T11:34:23.000Z</time>
      </trkpt>
      <trkpt lat="49.39514" lon="5.80993">
        <ele>307.79998779297</ele>
        <time>2022-09-13T11:34:24.000Z</time>
      </trkpt>
      <trkpt lat="49.39516" lon="5.80992">
        <ele>308.20001220703</ele>
        <time>2022-09-13T11:34:25.000Z</time>
      </trkpt>
      <trkpt lat="49.39519" lon="5.80993">
        <ele>308.20001220703</ele>
        <time>2022-09-13T11:34:26.000Z</time>
      </trkpt>
      <trkpt lat="49.39521" lon="5.80993">
        <ele>308.60000610352</ele>
        <time>2022-09-13T11:34:27.000Z</time>
      </trkpt>
      <trkpt lat="49.39523" lon="5.80993">
        <ele>309</ele>
        <time>2022-09-13T11:34:28.000Z</time>
      </trkpt>
      <trkpt lat="49.39525" lon="5.80992">
        <ele>309.20001220703</ele>
        <time>2022-09-13T11:34:29.000Z</time>
      </trkpt>
      <trkpt lat="49.39526" lon="5.80993">
        <ele>309.39999389648</ele>
        <time>2022-09-13T11:34:30.000Z</time>
      </trkpt>
      <trkpt lat="49.39529" lon="5.80993">
        <ele>309.60000610352</ele>
        <time>2022-09-13T11:34:31.000Z</time>
      </trkpt>
      <trkpt lat="49.39531" lon="5.80993">
        <ele>309.79998779297</ele>
        <time>2022-09-13T11:34:32.000Z</time>
      </trkpt>
      <trkpt lat="49.39533" lon="5.80993">
        <ele>310</ele>
        <time>2022-09-13T11:34:33.000Z</time>
      </trkpt>
      <trkpt lat="49.39535" lon="5.80993">
        <ele>310.39999389648</ele>
        <time>2022-09-13T11:34:34.000Z</time>
      </trkpt>
      <trkpt lat="49.39536" lon="5.80994">
        <ele>310.60000610352</ele>
        <time>2022-09-13T11:34:35.000Z</time>
      </trkpt>
      <trkpt lat="49.39538" lon="5.80994">
        <ele>311</ele>
        <time>2022-09-13T11:34:36.000Z</time>
      </trkpt>
      <trkpt lat="49.3954" lon="5.80993">
        <ele>311.60000610352</ele>
        <time>2022-09-13T11:34:37.000Z</time>
      </trkpt>
      <trkpt lat="49.39543" lon="5.80992">
        <ele>312</ele>
        <time>2022-09-13T11:34:38.000Z</time>
      </trkpt>
      <trkpt lat="49.39545" lon="5.80991">
        <ele>312.39999389648</ele>
        <time>2022-09-13T11:34:39.000Z</time>
      </trkpt>
      <trkpt lat="49.39547" lon="5.80992">
        <ele>312.60000610352</ele>
        <time>2022-09-13T11:34:40.000Z</time>
      </trkpt>
      <trkpt lat="49.39549" lon="5.80993">
        <ele>312.79998779297</ele>
        <time>2022-09-13T11:34:41.000Z</time>
      </trkpt>
      <trkpt lat="49.39552" lon="5.80994">
        <ele>313</ele>
        <time>2022-09-13T11:34:42.000Z</time>
      </trkpt>
      <trkpt lat="49.39555" lon="5.80993">
        <ele>313.39999389648</ele>
        <time>2022-09-13T11:34:43.000Z</time>
      </trkpt>
      <trkpt lat="49.39558" lon="5.80993">
        <ele>313.60000610352</ele>
        <time>2022-09-13T11:34:44.000Z</time>
      </trkpt>
      <trkpt lat="49.3956" lon="5.80994">
        <ele>313.79998779297</ele>
        <time>2022-09-13T11:34:45.000Z</time>
      </trkpt>
      <trkpt lat="49.39562" lon="5.80993">
        <ele>314.20001220703</ele>
        <time>2022-09-13T11:34:46.000Z</time>
      </trkpt>
      <trkpt lat="49.39564" lon="5.80993">
        <ele>314.39999389648</ele>
        <time>2022-09-13T11:34:47.000Z</time>
      </trkpt>
      <trkpt lat="49.39565" lon="5.80991">
        <ele>314.39999389648</ele>
        <time>2022-09-13T11:34:48.000Z</time>
      </trkpt>
      <trkpt lat="49.39567" lon="5.8099">
        <ele>314.60000610352</ele>
        <time>2022-09-13T11:34:49.000Z</time>
      </trkpt>
      <trkpt lat="49.3957" lon="5.80988">
        <ele>314.79998779297</ele>
        <time>2022-09-13T11:34:50.000Z</time>
      </trkpt>
      <trkpt lat="49.39573" lon="5.80986">
        <ele>315</ele>
        <time>2022-09-13T11:34:51.000Z</time>
      </trkpt>
      <trkpt lat="49.39575" lon="5.80987">
        <ele>315.20001220703</ele>
        <time>2022-09-13T11:34:52.000Z</time>
      </trkpt>
      <trkpt lat="49.39578" lon="5.80986">
        <ele>315.39999389648</ele>
        <time>2022-09-13T11:34:53.000Z</time>
      </trkpt>
      <trkpt lat="49.39579" lon="5.80984">
        <ele>315.60000610352</ele>
        <time>2022-09-13T11:34:54.000Z</time>
      </trkpt>
      <trkpt lat="49.39581" lon="5.80984">
        <ele>315.60000610352</ele>
        <time>2022-09-13T11:34:55.000Z</time>
      </trkpt>
      <trkpt lat="49.39582" lon="5.80984">
        <ele>315.79998779297</ele>
        <time>2022-09-13T11:34:56.000Z</time>
      </trkpt>
      <trkpt lat="49.39583" lon="5.80984">
        <ele>316</ele>
        <time>2022-09-13T11:34:57.000Z</time>
      </trkpt>
      <trkpt lat="49.39584" lon="5.80985">
        <ele>316.39999389648</ele>
        <time>2022-09-13T11:34:58.000Z</time>
      </trkpt>
      <trkpt lat="49.39586" lon="5.80986">
        <ele>316.39999389648</ele>
        <time>2022-09-13T11:34:59.000Z</time>
      </trkpt>
      <trkpt lat="49.39587" lon="5.80986">
        <ele>316.79998779297</ele>
        <time>2022-09-13T11:35:00.000Z</time>
      </trkpt>
      <trkpt lat="49.39588" lon="5.80986">
        <ele>316.79998779297</ele>
        <time>2022-09-13T11:35:01.000Z</time>
      </trkpt>
      <trkpt lat="49.3959" lon="5.80986">
        <ele>317</ele>
        <time>2022-09-13T11:35:02.000Z</time>
      </trkpt>
      <trkpt lat="49.39591" lon="5.80986">
        <ele>317.20001220703</ele>
        <time>2022-09-13T11:35:03.000Z</time>
      </trkpt>
      <trkpt lat="49.39592" lon="5.80986">
        <ele>317.39999389648</ele>
        <time>2022-09-13T11:35:04.000Z</time>
      </trkpt>
      <trkpt lat="49.39595" lon="5.80984">
        <ele>317.60000610352</ele>
        <time>2022-09-13T11:35:05.000Z</time>
      </trkpt>
      <trkpt lat="49.39595" lon="5.80985">
        <ele>317.79998779297</ele>
        <time>2022-09-13T11:35:06.000Z</time>
      </trkpt>
      <trkpt lat="49.39598" lon="5.80982">
        <ele>318</ele>
        <time>2022-09-13T11:35:07.000Z</time>
      </trkpt>
      <trkpt lat="49.39603" lon="5.80979">
        <ele>318.20001220703</ele>
        <time>2022-09-13T11:35:08.000Z</time>
      </trkpt>
      <trkpt lat="49.39606" lon="5.80977">
        <ele>318.39999389648</ele>
        <time>2022-09-13T11:35:09.000Z</time>
      </trkpt>
      <trkpt lat="49.39609" lon="5.80975">
        <ele>318.39999389648</ele>
        <time>2022-09-13T11:35:10.000Z</time>
      </trkpt>
      <trkpt lat="49.39611" lon="5.80974">
        <ele>318.60000610352</ele>
        <time>2022-09-13T11:35:11.000Z</time>
      </trkpt>
      <trkpt lat="49.39613" lon="5.80974">
        <ele>319</ele>
        <time>2022-09-13T11:35:13.000Z</time>
      </trkpt>
      <trkpt lat="49.39614" lon="5.80975">
        <ele>319.20001220703</ele>
        <time>2022-09-13T11:35:14.000Z</time>
      </trkpt>
      <trkpt lat="49.39617" lon="5.80973">
        <ele>319.20001220703</ele>
        <time>2022-09-13T11:35:15.000Z</time>
      </trkpt>
      <trkpt lat="49.39619" lon="5.80972">
        <ele>319.60000610352</ele>
        <time>2022-09-13T11:35:16.000Z</time>
      </trkpt>
      <trkpt lat="49.39622" lon="5.8097">
        <ele>319.79998779297</ele>
        <time>2022-09-13T11:35:17.000Z</time>
      </trkpt>
      <trkpt lat="49.39624" lon="5.80968">
        <ele>319.79998779297</ele>
        <time>2022-09-13T11:35:18.000Z</time>
      </trkpt>
      <trkpt lat="49.39625" lon="5.80968">
        <ele>320</ele>
        <time>2022-09-13T11:35:19.000Z</time>
      </trkpt>
      <trkpt lat="49.39627" lon="5.80967">
        <ele>320.20001220703</ele>
        <time>2022-09-13T11:35:20.000Z</time>
      </trkpt>
      <trkpt lat="49.39632" lon="5.80962">
        <ele>320.39999389648</ele>
        <time>2022-09-13T11:35:21.000Z</time>
      </trkpt>
      <trkpt lat="49.39636" lon="5.80959">
        <ele>320.60000610352</ele>
        <time>2022-09-13T11:35:22.000Z</time>
      </trkpt>
      <trkpt lat="49.39637" lon="5.80957">
        <ele>320.60000610352</ele>
        <time>2022-09-13T11:35:23.000Z</time>
      </trkpt>
      <trkpt lat="49.39639" lon="5.80955">
        <ele>320.60000610352</ele>
        <time>2022-09-13T11:35:24.000Z</time>
      </trkpt>
      <trkpt lat="49.3964" lon="5.80955">
        <ele>320.79998779297</ele>
        <time>2022-09-13T11:35:25.000Z</time>
      </trkpt>
      <trkpt lat="49.39641" lon="5.80953">
        <ele>320.79998779297</ele>
        <time>2022-09-13T11:35:26.000Z</time>
      </trkpt>
      <trkpt lat="49.39644" lon="5.80953">
        <ele>320.79998779297</ele>
        <time>2022-09-13T11:35:27.000Z</time>
      </trkpt>
      <trkpt lat="49.39646" lon="5.80952">
        <ele>320.79998779297</ele>
        <time>2022-09-13T11:35:28.000Z</time>
      </trkpt>
      <trkpt lat="49.39647" lon="5.80952">
        <ele>321</ele>
        <time>2022-09-13T11:35:29.000Z</time>
      </trkpt>
      <trkpt lat="49.39648" lon="5.80952">
        <ele>321.20001220703</ele>
        <time>2022-09-13T11:35:30.000Z</time>
      </trkpt>
      <trkpt lat="49.39649" lon="5.80951">
        <ele>321.20001220703</ele>
        <time>2022-09-13T11:35:31.000Z</time>
      </trkpt>
      <trkpt lat="49.39651" lon="5.8095">
        <ele>321.20001220703</ele>
        <time>2022-09-13T11:35:32.000Z</time>
      </trkpt>
      <trkpt lat="49.39654" lon="5.80951">
        <ele>321.20001220703</ele>
        <time>2022-09-13T11:35:33.000Z</time>
      </trkpt>
      <trkpt lat="49.39656" lon="5.8095">
        <ele>321.39999389648</ele>
        <time>2022-09-13T11:35:34.000Z</time>
      </trkpt>
      <trkpt lat="49.3966" lon="5.80947">
        <ele>321.60000610352</ele>
        <time>2022-09-13T11:35:35.000Z</time>
      </trkpt>
      <trkpt lat="49.39662" lon="5.80944">
        <ele>321.79998779297</ele>
        <time>2022-09-13T11:35:36.000Z</time>
      </trkpt>
      <trkpt lat="49.39661" lon="5.80942">
        <ele>321.79998779297</ele>
        <time>2022-09-13T11:35:37.000Z</time>
      </trkpt>
      <trkpt lat="49.3966" lon="5.80939">
        <ele>321.79998779297</ele>
        <time>2022-09-13T11:35:38.000Z</time>
      </trkpt>
      <trkpt lat="49.39659" lon="5.80935">
        <ele>321.79998779297</ele>
        <time>2022-09-13T11:35:39.000Z</time>
      </trkpt>
      <trkpt lat="49.39659" lon="5.80931">
        <ele>321.79998779297</ele>
        <time>2022-09-13T11:35:40.000Z</time>
      </trkpt>
      <trkpt lat="49.3966" lon="5.80927">
        <ele>321.79998779297</ele>
        <time>2022-09-13T11:35:41.000Z</time>
      </trkpt>
      <trkpt lat="49.39662" lon="5.80923">
        <ele>321.79998779297</ele>
        <time>2022-09-13T11:35:42.000Z</time>
      </trkpt>
      <trkpt lat="49.39664" lon="5.80918">
        <ele>321.79998779297</ele>
        <time>2022-09-13T11:35:43.000Z</time>
      </trkpt>
      <trkpt lat="49.39665" lon="5.80914">
        <ele>321.79998779297</ele>
        <time>2022-09-13T11:35:44.000Z</time>
      </trkpt>
      <trkpt lat="49.39668" lon="5.8091">
        <ele>321.79998779297</ele>
        <time>2022-09-13T11:35:45.000Z</time>
      </trkpt>
      <trkpt lat="49.39672" lon="5.80897">
        <ele>321.39999389648</ele>
        <time>2022-09-13T11:35:48.000Z</time>
      </trkpt>
      <trkpt lat="49.39673" lon="5.80892">
        <ele>321.39999389648</ele>
        <time>2022-09-13T11:35:49.000Z</time>
      </trkpt>
      <trkpt lat="49.3968" lon="5.80878">
        <ele>321</ele>
        <time>2022-09-13T11:35:52.000Z</time>
      </trkpt>
      <trkpt lat="49.39682" lon="5.80873">
        <ele>320.79998779297</ele>
        <time>2022-09-13T11:35:53.000Z</time>
      </trkpt>
      <trkpt lat="49.39683" lon="5.80868">
        <ele>320.79998779297</ele>
        <time>2022-09-13T11:35:54.000Z</time>
      </trkpt>
      <trkpt lat="49.39684" lon="5.80864">
        <ele>320.79998779297</ele>
        <time>2022-09-13T11:35:55.000Z</time>
      </trkpt>
      <trkpt lat="49.39686" lon="5.80859">
        <ele>320.60000610352</ele>
        <time>2022-09-13T11:35:56.000Z</time>
      </trkpt>
      <trkpt lat="49.39687" lon="5.80855">
        <ele>320.60000610352</ele>
        <time>2022-09-13T11:35:57.000Z</time>
      </trkpt>
      <trkpt lat="49.39688" lon="5.8085">
        <ele>320.39999389648</ele>
        <time>2022-09-13T11:35:58.000Z</time>
      </trkpt>
      <trkpt lat="49.39688" lon="5.80847">
        <ele>320.39999389648</ele>
        <time>2022-09-13T11:35:59.000Z</time>
      </trkpt>
      <trkpt lat="49.39689" lon="5.80843">
        <ele>320.20001220703</ele>
        <time>2022-09-13T11:36:00.000Z</time>
      </trkpt>
      <trkpt lat="49.39689" lon="5.8084">
        <ele>320.20001220703</ele>
        <time>2022-09-13T11:36:01.000Z</time>
      </trkpt>
      <trkpt lat="49.3969" lon="5.80837">
        <ele>320</ele>
        <time>2022-09-13T11:36:02.000Z</time>
      </trkpt>
      <trkpt lat="49.39692" lon="5.80833">
        <ele>320</ele>
        <time>2022-09-13T11:36:03.000Z</time>
      </trkpt>
      <trkpt lat="49.39693" lon="5.80829">
        <ele>320</ele>
        <time>2022-09-13T11:36:04.000Z</time>
      </trkpt>
      <trkpt lat="49.39693" lon="5.80825">
        <ele>320</ele>
        <time>2022-09-13T11:36:05.000Z</time>
      </trkpt>
      <trkpt lat="49.39693" lon="5.80821">
        <ele>320</ele>
        <time>2022-09-13T11:36:06.000Z</time>
      </trkpt>
      <trkpt lat="49.39694" lon="5.80818">
        <ele>320</ele>
        <time>2022-09-13T11:36:07.000Z</time>
      </trkpt>
      <trkpt lat="49.39694" lon="5.80816">
        <ele>320.20001220703</ele>
        <time>2022-09-13T11:36:08.000Z</time>
      </trkpt>
      <trkpt lat="49.39697" lon="5.80811">
        <ele>320.20001220703</ele>
        <time>2022-09-13T11:36:09.000Z</time>
      </trkpt>
      <trkpt lat="49.39699" lon="5.80809">
        <ele>320.20001220703</ele>
        <time>2022-09-13T11:36:10.000Z</time>
      </trkpt>
      <trkpt lat="49.397" lon="5.80807">
        <ele>320.39999389648</ele>
        <time>2022-09-13T11:36:11.000Z</time>
      </trkpt>
      <trkpt lat="49.39702" lon="5.80802">
        <ele>320.39999389648</ele>
        <time>2022-09-13T11:36:12.000Z</time>
      </trkpt>
      <trkpt lat="49.39703" lon="5.80799">
        <ele>320.39999389648</ele>
        <time>2022-09-13T11:36:13.000Z</time>
      </trkpt>
      <trkpt lat="49.39705" lon="5.80796">
        <ele>320.39999389648</ele>
        <time>2022-09-13T11:36:14.000Z</time>
      </trkpt>
      <trkpt lat="49.39708" lon="5.80792">
        <ele>320.39999389648</ele>
        <time>2022-09-13T11:36:15.000Z</time>
      </trkpt>
      <trkpt lat="49.39709" lon="5.80789">
        <ele>320.60000610352</ele>
        <time>2022-09-13T11:36:16.000Z</time>
      </trkpt>
      <trkpt lat="49.3971" lon="5.80782">
        <ele>320.60000610352</ele>
        <time>2022-09-13T11:36:18.000Z</time>
      </trkpt>
      <trkpt lat="49.39712" lon="5.80779">
        <ele>320.60000610352</ele>
        <time>2022-09-13T11:36:19.000Z</time>
      </trkpt>
      <trkpt lat="49.39716" lon="5.80765">
        <ele>320.79998779297</ele>
        <time>2022-09-13T11:36:23.000Z</time>
      </trkpt>
      <trkpt lat="49.39716" lon="5.80762">
        <ele>320.79998779297</ele>
        <time>2022-09-13T11:36:24.000Z</time>
      </trkpt>
      <trkpt lat="49.39716" lon="5.80759">
        <ele>320.79998779297</ele>
        <time>2022-09-13T11:36:25.000Z</time>
      </trkpt>
      <trkpt lat="49.39721" lon="5.8075">
        <ele>321.20001220703</ele>
        <time>2022-09-13T11:36:28.000Z</time>
      </trkpt>
      <trkpt lat="49.3972" lon="5.80746">
        <ele>321.39999389648</ele>
        <time>2022-09-13T11:36:29.000Z</time>
      </trkpt>
      <trkpt lat="49.39719" lon="5.80742">
        <ele>321.39999389648</ele>
        <time>2022-09-13T11:36:30.000Z</time>
      </trkpt>
      <trkpt lat="49.3972" lon="5.80737">
        <ele>321.39999389648</ele>
        <time>2022-09-13T11:36:31.000Z</time>
      </trkpt>
      <trkpt lat="49.39721" lon="5.80733">
        <ele>321.60000610352</ele>
        <time>2022-09-13T11:36:32.000Z</time>
      </trkpt>
      <trkpt lat="49.39723" lon="5.80729">
        <ele>321.60000610352</ele>
        <time>2022-09-13T11:36:33.000Z</time>
      </trkpt>
      <trkpt lat="49.39725" lon="5.80726">
        <ele>321.60000610352</ele>
        <time>2022-09-13T11:36:34.000Z</time>
      </trkpt>
      <trkpt lat="49.3973" lon="5.80717">
        <ele>321.79998779297</ele>
        <time>2022-09-13T11:36:37.000Z</time>
      </trkpt>
      <trkpt lat="49.39743" lon="5.80685">
        <ele>322.20001220703</ele>
        <time>2022-09-13T11:36:46.000Z</time>
      </trkpt>
      <trkpt lat="49.39747" lon="5.80676">
        <ele>322.20001220703</ele>
        <time>2022-09-13T11:36:49.000Z</time>
      </trkpt>
      <trkpt lat="49.3975" lon="5.80672">
        <ele>322.20001220703</ele>
        <time>2022-09-13T11:36:50.000Z</time>
      </trkpt>
      <trkpt lat="49.39755" lon="5.8066">
        <ele>322.20001220703</ele>
        <time>2022-09-13T11:36:53.000Z</time>
      </trkpt>
      <trkpt lat="49.39759" lon="5.80654">
        <ele>322.20001220703</ele>
        <time>2022-09-13T11:36:55.000Z</time>
      </trkpt>
      <trkpt lat="49.39759" lon="5.8065">
        <ele>322.20001220703</ele>
        <time>2022-09-13T11:36:56.000Z</time>
      </trkpt>
      <trkpt lat="49.39758" lon="5.80644">
        <ele>322.39999389648</ele>
        <time>2022-09-13T11:36:57.000Z</time>
      </trkpt>
      <trkpt lat="49.39759" lon="5.8064">
        <ele>322.39999389648</ele>
        <time>2022-09-13T11:36:58.000Z</time>
      </trkpt>
      <trkpt lat="49.3976" lon="5.80637">
        <ele>322.39999389648</ele>
        <time>2022-09-13T11:36:59.000Z</time>
      </trkpt>
      <trkpt lat="49.39761" lon="5.80634">
        <ele>322.20001220703</ele>
        <time>2022-09-13T11:37:00.000Z</time>
      </trkpt>
      <trkpt lat="49.39762" lon="5.8063">
        <ele>322.20001220703</ele>
        <time>2022-09-13T11:37:01.000Z</time>
      </trkpt>
      <trkpt lat="49.39763" lon="5.80627">
        <ele>322.20001220703</ele>
        <time>2022-09-13T11:37:02.000Z</time>
      </trkpt>
      <trkpt lat="49.39763" lon="5.80624">
        <ele>322.20001220703</ele>
        <time>2022-09-13T11:37:03.000Z</time>
      </trkpt>
      <trkpt lat="49.39765" lon="5.80621">
        <ele>322.20001220703</ele>
        <time>2022-09-13T11:37:04.000Z</time>
      </trkpt>
      <trkpt lat="49.39766" lon="5.80618">
        <ele>322.20001220703</ele>
        <time>2022-09-13T11:37:05.000Z</time>
      </trkpt>
      <trkpt lat="49.39769" lon="5.80604">
        <ele>322.20001220703</ele>
        <time>2022-09-13T11:37:08.000Z</time>
      </trkpt>
      <trkpt lat="49.39769" lon="5.80599">
        <ele>322</ele>
        <time>2022-09-13T11:37:09.000Z</time>
      </trkpt>
      <trkpt lat="49.39769" lon="5.80594">
        <ele>322</ele>
        <time>2022-09-13T11:37:10.000Z</time>
      </trkpt>
      <trkpt lat="49.39768" lon="5.80588">
        <ele>321.79998779297</ele>
        <time>2022-09-13T11:37:11.000Z</time>
      </trkpt>
      <trkpt lat="49.39768" lon="5.80582">
        <ele>321.79998779297</ele>
        <time>2022-09-13T11:37:12.000Z</time>
      </trkpt>
      <trkpt lat="49.39761" lon="5.80554">
        <ele>321</ele>
        <time>2022-09-13T11:37:16.000Z</time>
      </trkpt>
      <trkpt lat="49.39748" lon="5.80515">
        <ele>320.60000610352</ele>
        <time>2022-09-13T11:37:21.000Z</time>
      </trkpt>
      <trkpt lat="49.39743" lon="5.80505">
        <ele>320.39999389648</ele>
        <time>2022-09-13T11:37:22.000Z</time>
      </trkpt>
      <trkpt lat="49.39736" lon="5.80486">
        <ele>320</ele>
        <time>2022-09-13T11:37:24.000Z</time>
      </trkpt>
      <trkpt lat="49.39734" lon="5.80477">
        <ele>319.20001220703</ele>
        <time>2022-09-13T11:37:25.000Z</time>
      </trkpt>
      <trkpt lat="49.39734" lon="5.80467">
        <ele>319</ele>
        <time>2022-09-13T11:37:26.000Z</time>
      </trkpt>
      <trkpt lat="49.39734" lon="5.80458">
        <ele>318.39999389648</ele>
        <time>2022-09-13T11:37:27.000Z</time>
      </trkpt>
      <trkpt lat="49.39732" lon="5.80448">
        <ele>318.20001220703</ele>
        <time>2022-09-13T11:37:28.000Z</time>
      </trkpt>
      <trkpt lat="49.3973" lon="5.80436">
        <ele>317.39999389648</ele>
        <time>2022-09-13T11:37:29.000Z</time>
      </trkpt>
      <trkpt lat="49.39724" lon="5.80403">
        <ele>315.79998779297</ele>
        <time>2022-09-13T11:37:32.000Z</time>
      </trkpt>
      <trkpt lat="49.39721" lon="5.8039">
        <ele>315.60000610352</ele>
        <time>2022-09-13T11:37:33.000Z</time>
      </trkpt>
      <trkpt lat="49.39718" lon="5.80378">
        <ele>315.20001220703</ele>
        <time>2022-09-13T11:37:34.000Z</time>
      </trkpt>
      <trkpt lat="49.3971" lon="5.80354">
        <ele>314.39999389648</ele>
        <time>2022-09-13T11:37:36.000Z</time>
      </trkpt>
      <trkpt lat="49.39702" lon="5.8033">
        <ele>313</ele>
        <time>2022-09-13T11:37:38.000Z</time>
      </trkpt>
      <trkpt lat="49.397" lon="5.80319">
        <ele>312.20001220703</ele>
        <time>2022-09-13T11:37:39.000Z</time>
      </trkpt>
      <trkpt lat="49.39698" lon="5.80309">
        <ele>311.79998779297</ele>
        <time>2022-09-13T11:37:40.000Z</time>
      </trkpt>
      <trkpt lat="49.39698" lon="5.80298">
        <ele>311.20001220703</ele>
        <time>2022-09-13T11:37:41.000Z</time>
      </trkpt>
      <trkpt lat="49.39699" lon="5.80288">
        <ele>310.79998779297</ele>
        <time>2022-09-13T11:37:42.000Z</time>
      </trkpt>
      <trkpt lat="49.39701" lon="5.80279">
        <ele>309.20001220703</ele>
        <time>2022-09-13T11:37:43.000Z</time>
      </trkpt>
      <trkpt lat="49.39703" lon="5.80267">
        <ele>308.60000610352</ele>
        <time>2022-09-13T11:37:44.000Z</time>
      </trkpt>
      <trkpt lat="49.39706" lon="5.80256">
        <ele>307</ele>
        <time>2022-09-13T11:37:45.000Z</time>
      </trkpt>
      <trkpt lat="49.39709" lon="5.80243">
        <ele>306</ele>
        <time>2022-09-13T11:37:46.000Z</time>
      </trkpt>
      <trkpt lat="49.39711" lon="5.80232">
        <ele>305.60000610352</ele>
        <time>2022-09-13T11:37:47.000Z</time>
      </trkpt>
      <trkpt lat="49.39719" lon="5.80209">
        <ele>304</ele>
        <time>2022-09-13T11:37:49.000Z</time>
      </trkpt>
      <trkpt lat="49.39721" lon="5.80201">
        <ele>302.39999389648</ele>
        <time>2022-09-13T11:37:50.000Z</time>
      </trkpt>
      <trkpt lat="49.39724" lon="5.80193">
        <ele>301.39999389648</ele>
        <time>2022-09-13T11:37:51.000Z</time>
      </trkpt>
      <trkpt lat="49.39728" lon="5.80183">
        <ele>299.79998779297</ele>
        <time>2022-09-13T11:37:52.000Z</time>
      </trkpt>
      <trkpt lat="49.39732" lon="5.80174">
        <ele>297.79998779297</ele>
        <time>2022-09-13T11:37:53.000Z</time>
      </trkpt>
      <trkpt lat="49.39737" lon="5.80167">
        <ele>297.20001220703</ele>
        <time>2022-09-13T11:37:54.000Z</time>
      </trkpt>
      <trkpt lat="49.39741" lon="5.80161">
        <ele>295.20001220703</ele>
        <time>2022-09-13T11:37:55.000Z</time>
      </trkpt>
      <trkpt lat="49.39743" lon="5.80155">
        <ele>294</ele>
        <time>2022-09-13T11:37:56.000Z</time>
      </trkpt>
      <trkpt lat="49.39746" lon="5.80149">
        <ele>292.39999389648</ele>
        <time>2022-09-13T11:37:57.000Z</time>
      </trkpt>
      <trkpt lat="49.39751" lon="5.80144">
        <ele>292</ele>
        <time>2022-09-13T11:37:58.000Z</time>
      </trkpt>
      <trkpt lat="49.39754" lon="5.80138">
        <ele>291</ele>
        <time>2022-09-13T11:37:59.000Z</time>
      </trkpt>
      <trkpt lat="49.39758" lon="5.80132">
        <ele>289.79998779297</ele>
        <time>2022-09-13T11:38:00.000Z</time>
      </trkpt>
      <trkpt lat="49.39767" lon="5.80124">
        <ele>289.20001220703</ele>
        <time>2022-09-13T11:38:01.000Z</time>
      </trkpt>
      <trkpt lat="49.39775" lon="5.80118">
        <ele>288</ele>
        <time>2022-09-13T11:38:02.000Z</time>
      </trkpt>
      <trkpt lat="49.39783" lon="5.80112">
        <ele>287</ele>
        <time>2022-09-13T11:38:03.000Z</time>
      </trkpt>
      <trkpt lat="49.3979" lon="5.80106">
        <ele>284.39999389648</ele>
        <time>2022-09-13T11:38:04.000Z</time>
      </trkpt>
      <trkpt lat="49.39797" lon="5.80101">
        <ele>283.60000610352</ele>
        <time>2022-09-13T11:38:05.000Z</time>
      </trkpt>
      <trkpt lat="49.39808" lon="5.80094">
        <ele>282.60000610352</ele>
        <time>2022-09-13T11:38:06.000Z</time>
      </trkpt>
      <trkpt lat="49.39826" lon="5.8008">
        <ele>280.79998779297</ele>
        <time>2022-09-13T11:38:08.000Z</time>
      </trkpt>
      <trkpt lat="49.39828" lon="5.80074">
        <ele>280</ele>
        <time>2022-09-13T11:38:09.000Z</time>
      </trkpt>
      <trkpt lat="49.39832" lon="5.80068">
        <ele>279.60000610352</ele>
        <time>2022-09-13T11:38:10.000Z</time>
      </trkpt>
      <trkpt lat="49.39837" lon="5.80062">
        <ele>279.39999389648</ele>
        <time>2022-09-13T11:38:11.000Z</time>
      </trkpt>
      <trkpt lat="49.39841" lon="5.80057">
        <ele>279.20001220703</ele>
        <time>2022-09-13T11:38:12.000Z</time>
      </trkpt>
      <trkpt lat="49.39845" lon="5.80054">
        <ele>279</ele>
        <time>2022-09-13T11:38:13.000Z</time>
      </trkpt>
      <trkpt lat="49.39848" lon="5.80051">
        <ele>278.60000610352</ele>
        <time>2022-09-13T11:38:14.000Z</time>
      </trkpt>
      <trkpt lat="49.3985" lon="5.80048">
        <ele>278.39999389648</ele>
        <time>2022-09-13T11:38:15.000Z</time>
      </trkpt>
      <trkpt lat="49.39852" lon="5.80046">
        <ele>278.20001220703</ele>
        <time>2022-09-13T11:38:16.000Z</time>
      </trkpt>
      <trkpt lat="49.39853" lon="5.80043">
        <ele>278.20001220703</ele>
        <time>2022-09-13T11:38:17.000Z</time>
      </trkpt>
      <trkpt lat="49.39854" lon="5.80041">
        <ele>278.20001220703</ele>
        <time>2022-09-13T11:38:18.000Z</time>
      </trkpt>
      <trkpt lat="49.39855" lon="5.80039">
        <ele>278</ele>
        <time>2022-09-13T11:38:19.000Z</time>
      </trkpt>
      <trkpt lat="49.39857" lon="5.80038">
        <ele>278</ele>
        <time>2022-09-13T11:38:20.000Z</time>
      </trkpt>
      <trkpt lat="49.39858" lon="5.80036">
        <ele>278</ele>
        <time>2022-09-13T11:38:21.000Z</time>
      </trkpt>
      <trkpt lat="49.39863" lon="5.80028">
        <ele>278.20001220703</ele>
        <time>2022-09-13T11:38:25.000Z</time>
      </trkpt>
      <trkpt lat="49.39864" lon="5.80026">
        <ele>278.20001220703</ele>
        <time>2022-09-13T11:38:26.000Z</time>
      </trkpt>
      <trkpt lat="49.39865" lon="5.80024">
        <ele>278.20001220703</ele>
        <time>2022-09-13T11:38:27.000Z</time>
      </trkpt>
      <trkpt lat="49.39867" lon="5.80022">
        <ele>278.20001220703</ele>
        <time>2022-09-13T11:38:28.000Z</time>
      </trkpt>
      <trkpt lat="49.39872" lon="5.80017">
        <ele>278.39999389648</ele>
        <time>2022-09-13T11:38:30.000Z</time>
      </trkpt>
      <trkpt lat="49.39874" lon="5.80015">
        <ele>278.79998779297</ele>
        <time>2022-09-13T11:38:31.000Z</time>
      </trkpt>
      <trkpt lat="49.39881" lon="5.8001">
        <ele>279.60000610352</ele>
        <time>2022-09-13T11:38:34.000Z</time>
      </trkpt>
      <trkpt lat="49.39896" lon="5.8">
        <ele>280.39999389648</ele>
        <time>2022-09-13T11:38:41.000Z</time>
      </trkpt>
      <trkpt lat="49.39899" lon="5.79999">
        <ele>280.60000610352</ele>
        <time>2022-09-13T11:38:42.000Z</time>
      </trkpt>
      <trkpt lat="49.39904" lon="5.79997">
        <ele>280.79998779297</ele>
        <time>2022-09-13T11:38:44.000Z</time>
      </trkpt>
      <trkpt lat="49.39905" lon="5.79996">
        <ele>281</ele>
        <time>2022-09-13T11:38:45.000Z</time>
      </trkpt>
      <trkpt lat="49.39907" lon="5.79997">
        <ele>281.20001220703</ele>
        <time>2022-09-13T11:38:46.000Z</time>
      </trkpt>
      <trkpt lat="49.39909" lon="5.79996">
        <ele>281.20001220703</ele>
        <time>2022-09-13T11:38:47.000Z</time>
      </trkpt>
      <trkpt lat="49.39912" lon="5.79995">
        <ele>281.39999389648</ele>
        <time>2022-09-13T11:38:48.000Z</time>
      </trkpt>
      <trkpt lat="49.39917" lon="5.7999">
        <ele>272.3</ele>
        <time>2022-09-13T11:38:49.000Z</time>
      </trkpt>
      <trkpt lat="49.39934" lon="5.79986">
        <ele>273.5</ele>
      </trkpt>
      <trkpt lat="49.39953" lon="5.79989">
        <ele>274.8</ele>
      </trkpt>
      <trkpt lat="49.39957" lon="5.79989">
        <ele>274.8</ele>
      </trkpt>
      <trkpt lat="49.39967" lon="5.79994">
        <ele>275.4</ele>
      </trkpt>
      <trkpt lat="49.39988" lon="5.80009">
        <ele>277</ele>
      </trkpt>
      <trkpt lat="49.40011" lon="5.80033">
        <ele>279.5</ele>
      </trkpt>
      <trkpt lat="49.40034" lon="5.80055">
        <ele>281.2</ele>
      </trkpt>
      <trkpt lat="49.40056" lon="5.80063">
        <ele>282.6</ele>
      </trkpt>
      <trkpt lat="49.40069" lon="5.80062">
        <ele>282.9</ele>
      </trkpt>
      <trkpt lat="49.4008" lon="5.80059">
        <ele>283</ele>
      </trkpt>
      <trkpt lat="49.40094" lon="5.80047">
        <ele>283.6</ele>
      </trkpt>
      <trkpt lat="49.401" lon="5.80036">
        <ele>283.9</ele>
      </trkpt>
      <trkpt lat="49.40102" lon="5.80016">
        <ele>284.5</ele>
      </trkpt>
      <trkpt lat="49.40099" lon="5.79971">
        <ele>286.5</ele>
      </trkpt>
      <trkpt lat="49.40089" lon="5.79949">
        <ele>287.5</ele>
      </trkpt>
      <trkpt lat="49.40073" lon="5.79936">
        <ele>287.2</ele>
      </trkpt>
      <trkpt lat="49.40026" lon="5.79877">
        <ele>291.1</ele>
      </trkpt>
      <trkpt lat="49.40011" lon="5.79846">
        <ele>290.7</ele>
      </trkpt>
      <trkpt lat="49.3997" lon="5.79674">
        <ele>299.5</ele>
      </trkpt>
      <trkpt lat="49.39966" lon="5.79637">
        <ele>300.3</ele>
      </trkpt>
      <trkpt lat="49.3997" lon="5.79616">
        <ele>302.4</ele>
      </trkpt>
      <trkpt lat="49.39977" lon="5.79597">
        <ele>303.3</ele>
      </trkpt>
      <trkpt lat="49.39992" lon="5.79584">
        <ele>303.7</ele>
      </trkpt>
      <trkpt lat="49.40046" lon="5.79564">
        <ele>306</ele>
      </trkpt>
      <trkpt lat="49.40316" lon="5.79477">
        <ele>308.2</ele>
      </trkpt>
      <trkpt lat="49.40346" lon="5.79466">
        <ele>308.1</ele>
      </trkpt>
      <trkpt lat="49.40426" lon="5.79397">
        <ele>313.2</ele>
      </trkpt>
      <trkpt lat="49.40451" lon="5.79368">
        <ele>316.3</ele>
      </trkpt>
      <trkpt lat="49.40521" lon="5.79302">
        <ele>322.5</ele>
      </trkpt>
      <trkpt lat="49.40521" lon="5.79302">
        <ele>322.5</ele>
      </trkpt>
      <trkpt lat="49.40707" lon="5.79055">
        <ele>326.4</ele>
      </trkpt>
      <trkpt lat="49.40739" lon="5.79">
        <ele>326.2</ele>
      </trkpt>
      <trkpt lat="49.4075" lon="5.7897">
        <ele>326.9</ele>
      </trkpt>
      <trkpt lat="49.40758" lon="5.78938">
        <ele>326.6</ele>
      </trkpt>
      <trkpt lat="49.4077" lon="5.78889">
        <ele>327.7</ele>
      </trkpt>
      <trkpt lat="49.4078" lon="5.78844">
        <ele>329.8</ele>
      </trkpt>
      <trkpt lat="49.40779" lon="5.78844">
        <ele>329.8</ele>
      </trkpt>
      <trkpt lat="49.40777" lon="5.7884">
        <ele>329.7</ele>
      </trkpt>
      <trkpt lat="49.40769" lon="5.78842">
        <ele>329</ele>
      </trkpt>
      <trkpt lat="49.40762" lon="5.7884">
        <ele>328.6</ele>
      </trkpt>
      <trkpt lat="49.40747" lon="5.7882">
        <ele>328.2</ele>
      </trkpt>
      <trkpt lat="49.40735" lon="5.788">
        <ele>327.3</ele>
      </trkpt>
      <trkpt lat="49.40724" lon="5.78787">
        <ele>326.1</ele>
      </trkpt>
      <trkpt lat="49.40708" lon="5.7878">
        <ele>325.5</ele>
      </trkpt>
      <trkpt lat="49.4068" lon="5.78786">
        <ele>324.5</ele>
      </trkpt>
      <trkpt lat="49.40605" lon="5.7881">
        <ele>320.4</ele>
      </trkpt>
      <trkpt lat="49.40559" lon="5.78815">
        <ele>318.1</ele>
      </trkpt>
      <trkpt lat="49.40544" lon="5.78818">
        <ele>317</ele>
      </trkpt>
      <trkpt lat="49.40508" lon="5.7883">
        <ele>313.7</ele>
      </trkpt>
      <trkpt lat="49.40498" lon="5.78831">
        <ele>312.9</ele>
      </trkpt>
      <trkpt lat="49.40481" lon="5.78822">
        <ele>312.1</ele>
      </trkpt>
      <trkpt lat="49.40465" lon="5.7882">
        <ele>310.5</ele>
      </trkpt>
      <trkpt lat="49.40447" lon="5.78797">
        <ele>308.9</ele>
      </trkpt>
      <trkpt lat="49.4043" lon="5.78758">
        <ele>309.5</ele>
      </trkpt>
      <trkpt lat="49.40417" lon="5.78749">
        <ele>309.1</ele>
      </trkpt>
      <trkpt lat="49.4043" lon="5.78758">
        <ele>309.5</ele>
      </trkpt>
      <trkpt lat="49.40447" lon="5.78797">
        <ele>308.9</ele>
      </trkpt>
      <trkpt lat="49.40466" lon="5.78819">
        <ele>310.5</ele>
      </trkpt>
      <trkpt lat="49.40481" lon="5.7882">
        <ele>312.1</ele>
      </trkpt>
      <trkpt lat="49.40489" lon="5.78827">
        <ele>312.5</ele>
      </trkpt>
      <trkpt lat="49.40498" lon="5.78831">
        <ele>312.9</ele>
      </trkpt>
      <trkpt lat="49.40507" lon="5.78831">
        <ele>313.6</ele>
      </trkpt>
      <trkpt lat="49.40544" lon="5.78818">
        <ele>317</ele>
      </trkpt>
      <trkpt lat="49.40551" lon="5.78816">
        <ele>317.6</ele>
      </trkpt>
      <trkpt lat="49.40559" lon="5.78815">
        <ele>318.1</ele>
      </trkpt>
      <trkpt lat="49.40605" lon="5.78809">
        <ele>320.5</ele>
      </trkpt>
      <trkpt lat="49.4064" lon="5.78799">
        <ele>322.3</ele>
      </trkpt>
      <trkpt lat="49.40681" lon="5.78786">
        <ele>324.5</ele>
      </trkpt>
      <trkpt lat="49.40708" lon="5.7878">
        <ele>325.5</ele>
      </trkpt>
      <trkpt lat="49.40724" lon="5.78787">
        <ele>326.1</ele>
      </trkpt>
      <trkpt lat="49.40735" lon="5.78799">
        <ele>327.2</ele>
      </trkpt>
      <trkpt lat="49.40747" lon="5.7882">
        <ele>328.2</ele>
      </trkpt>
      <trkpt lat="49.40761" lon="5.7884">
        <ele>328.5</ele>
      </trkpt>
      <trkpt lat="49.40769" lon="5.78842">
        <ele>329</ele>
      </trkpt>
      <trkpt lat="49.40777" lon="5.7884">
        <ele>329.7</ele>
      </trkpt>
      <trkpt lat="49.4078" lon="5.78843">
        <ele>329.9</ele>
      </trkpt>
      <trkpt lat="49.40768" lon="5.78896">
        <ele>327.6</ele>
      </trkpt>
      <trkpt lat="49.4075" lon="5.7897">
        <ele>326.9</ele>
      </trkpt>
      <trkpt lat="49.4074" lon="5.78999">
        <ele>326.2</ele>
      </trkpt>
      <trkpt lat="49.40724" lon="5.79028">
        <ele>326.1</ele>
      </trkpt>
      <trkpt lat="49.40707" lon="5.79054">
        <ele>326.4</ele>
      </trkpt>
      <trkpt lat="49.4064" lon="5.79141">
        <ele>327.1</ele>
      </trkpt>
      <trkpt lat="49.4058" lon="5.79224">
        <ele>325.9</ele>
      </trkpt>
      <trkpt lat="49.4052" lon="5.79304">
        <ele>322.5</ele>
      </trkpt>
      <trkpt lat="49.40451" lon="5.79369">
        <ele>316.2</ele>
      </trkpt>
      <trkpt lat="49.40426" lon="5.79399">
        <ele>313.2</ele>
      </trkpt>
      <trkpt lat="49.40424" lon="5.79399">
        <ele>313</ele>
      </trkpt>
      <trkpt lat="49.40347" lon="5.79464">
        <ele>308</ele>
      </trkpt>
      <trkpt lat="49.4022" lon="5.79508">
        <ele>308.6</ele>
      </trkpt>
      <trkpt lat="49.40115" lon="5.79543">
        <ele>307.2</ele>
      </trkpt>
      <trkpt lat="49.39994" lon="5.79584">
        <ele>303.8</ele>
      </trkpt>
      <trkpt lat="49.39978" lon="5.79597">
        <ele>303.3</ele>
      </trkpt>
      <trkpt lat="49.39969" lon="5.79617">
        <ele>302.2</ele>
      </trkpt>
      <trkpt lat="49.39967" lon="5.79637">
        <ele>300.3</ele>
      </trkpt>
      <trkpt lat="49.39969" lon="5.79672">
        <ele>299.2</ele>
      </trkpt>
      <trkpt lat="49.40012" lon="5.79849">
        <ele>290.6</ele>
      </trkpt>
      <trkpt lat="49.40025" lon="5.79877">
        <ele>290.8</ele>
      </trkpt>
      <trkpt lat="49.40073" lon="5.79936">
        <ele>287.1</ele>
      </trkpt>
      <trkpt lat="49.40089" lon="5.79949">
        <ele>287.5</ele>
      </trkpt>
      <trkpt lat="49.40099" lon="5.7997">
        <ele>286.5</ele>
      </trkpt>
      <trkpt lat="49.40101" lon="5.79991">
        <ele>285.4</ele>
      </trkpt>
      <trkpt lat="49.40102" lon="5.80016">
        <ele>284.5</ele>
      </trkpt>
      <trkpt lat="49.401" lon="5.80035">
        <ele>283.9</ele>
      </trkpt>
      <trkpt lat="49.40095" lon="5.80046">
        <ele>283.6</ele>
      </trkpt>
      <trkpt lat="49.4008" lon="5.80059">
        <ele>283</ele>
      </trkpt>
      <trkpt lat="49.40069" lon="5.80062">
        <ele>282.8</ele>
      </trkpt>
      <trkpt lat="49.40056" lon="5.80063">
        <ele>282.5</ele>
      </trkpt>
      <trkpt lat="49.40034" lon="5.80055">
        <ele>281.1</ele>
      </trkpt>
      <trkpt lat="49.40011" lon="5.80033">
        <ele>279.5</ele>
      </trkpt>
      <trkpt lat="49.39988" lon="5.80009">
        <ele>277</ele>
      </trkpt>
      <trkpt lat="49.39967" lon="5.79994">
        <ele>275.4</ele>
      </trkpt>
      <trkpt lat="49.39958" lon="5.79989">
        <ele>274.8</ele>
      </trkpt>
      <trkpt lat="49.39953" lon="5.79989">
        <ele>274.8</ele>
        <time>2022-09-13T11:38:50.000Z</time>
      </trkpt>
      <trkpt lat="49.39934" lon="5.79987">
        <ele>273.6</ele>
      </trkpt>
      <trkpt lat="49.39917" lon="5.7999">
        <ele>272.3</ele>
        <time>2022-09-13T11:38:51.000Z</time>
      </trkpt>
    </trkseg>
  </trk>
</gpx>